Time;durP1;ratioP1;P1;durP2;ratioP2;P2;SDS_P1;SDS_P2;PMS_P1;PMS_P2;Temp;Humidity;BMP_temperature;BMP_pressure;BME280_temperature;BME280_humidity;BME280_pressure;Samples;Min_cycle;Max_cycle;Signal;HPM_P1;HPM_P2
2021/12/07 00:02:23;;;;;;;0.40;0.40;;;1.20;99.90;;;;;;5014896;28;20480;-69
2021/12/07 00:05:12;;;;;;;0.40;0.40;;;1.30;99.90;;;;;;5014333;28;20425;-70
2021/12/07 00:07:59;;;;;;;0.40;0.40;;;1.20;99.90;;;;;;5014714;28;20429;-70
2021/12/07 00:10:48;;;;;;;0.40;0.40;;;1.20;99.90;;;;;;5015425;28;20423;-70
2021/12/07 00:13:38;;;;;;;0.50;0.50;;;1.30;99.90;;;;;;5014801;28;20421;-71
2021/12/07 00:16:29;;;;;;;0.40;0.40;;;1.40;99.90;;;;;;5014899;28;20643;-71
2021/12/07 00:19:16;;;;;;;0.50;0.50;;;1.40;99.90;;;;;;5014418;28;20435;-70
2021/12/07 00:22:09;;;;;;;0.50;0.50;;;1.50;99.90;;;;;;5015068;28;20464;-70
2021/12/07 00:24:56;;;;;;;0.50;0.50;;;1.30;99.90;;;;;;5015119;28;20429;-69
2021/12/07 00:27:43;;;;;;;0.47;0.47;;;1.40;99.90;;;;;;5014696;28;20426;-70
2021/12/07 00:30:32;;;;;;;0.40;0.40;;;1.50;99.90;;;;;;5014409;28;20430;-71
2021/12/07 00:33:34;;;;;;;0.40;0.40;;;1.40;99.90;;;;;;5014454;28;20418;-70
2021/12/07 00:36:21;;;;;;;0.40;0.40;;;1.40;99.90;;;;;;5014918;28;20477;-70
2021/12/07 00:39:10;;;;;;;1.33;1.33;;;1.40;99.90;;;;;;5014445;28;20422;-70
2021/12/07 00:41:58;;;;;;;0.43;0.43;;;1.40;99.90;;;;;;5013758;28;20426;-69
2021/12/07 00:44:45;;;;;;;0.40;0.40;;;1.30;99.90;;;;;;4993901;28;20414;-69
2021/12/07 00:47:32;;;;;;;0.40;0.40;;;1.40;99.90;;;;;;5007850;28;20458;-70
2021/12/07 00:50:20;;;;;;;0.40;0.40;;;1.30;99.90;;;;;;4996641;28;20894;-69
2021/12/07 00:53:08;;;;;;;0.40;0.40;;;1.40;99.90;;;;;;4994321;28;20434;-69
2021/12/07 00:55:59;;;;;;;0.47;0.47;;;1.20;99.90;;;;;;4993734;28;20475;-69
2021/12/07 00:58:46;;;;;;;0.40;0.40;;;1.30;99.90;;;;;;5070353;23;20486;-66
2021/12/07 01:01:35;;;;;;;0.40;0.40;;;1.20;99.90;;;;;;5054802;28;20815;-67
2021/12/07 01:04:22;;;;;;;0.40;0.40;;;1.10;99.90;;;;;;5053835;28;20423;-67
2021/12/07 01:07:23;;;;;;;0.40;0.40;;;1.10;99.90;;;;;;5053850;28;20433;-67
2021/12/07 01:25:38;;;;;;;0.60;0.60;;;0.80;99.90;;;;;;5053160;28;20419;-67
2021/12/07 01:28:31;;;;;;;0.40;0.40;;;0.90;99.90;;;;;;5068405;28;20456;-67
2021/12/07 01:31:24;;;;;;;5.00;2.53;;;0.90;99.90;;;;;;5070909;28;20425;-67
2021/12/07 01:34:27;;;;;;;0.63;0.63;;;1.00;99.90;;;;;;5066789;28;20429;-69
2021/12/07 01:37:29;;;;;;;0.40;0.40;;;0.90;99.90;;;;;;5062275;28;20467;-67
2021/12/07 01:40:31;;;;;;;0.50;0.50;;;0.70;99.90;;;;;;5062569;28;20416;-67
2021/12/07 01:43:52;;;;;;;0.40;0.40;;;0.70;99.90;;;;;;5061284;28;20421;-67
2021/12/07 01:46:52;;;;;;;0.40;0.40;;;0.60;99.90;;;;;;5056608;28;20413;-68
2021/12/07 01:50:11;;;;;;;0.40;0.40;;;0.50;99.90;;;;;;5052880;28;20432;-68
2021/12/07 01:53:13;;;;;;;0.40;0.40;;;0.30;99.90;;;;;;5052860;28;20512;-67
2021/12/07 02:02:27;;;;;;;0.40;0.40;;;0.10;99.90;;;;;;4990997;28;20462;-67
2021/12/07 02:05:15;;;;;;;0.40;0.40;;;0.20;99.90;;;;;;5051963;28;20420;-68
2021/12/07 02:08:03;;;;;;;0.40;0.40;;;0.20;99.90;;;;;;5052295;28;20440;-67
2021/12/07 02:10:53;;;;;;;0.40;0.40;;;0.20;99.90;;;;;;5052200;28;20433;-68
2021/12/07 02:16:45;;;;;;;0.40;0.40;;;0.00;99.90;;;;;;5049546;28;20478;-67
2021/12/07 02:19:34;;;;;;;0.40;0.40;;;-0.10;99.90;;;;;;5051990;28;20447;-67
2021/12/07 02:22:22;;;;;;;0.40;0.40;;;0.00;99.90;;;;;;5052231;28;20953;-68
2021/12/07 02:25:11;;;;;;;0.40;0.40;;;-0.10;99.90;;;;;;5052271;28;20467;-67
2021/12/07 02:27:58;;;;;;;0.40;0.40;;;-0.10;99.90;;;;;;5052771;28;20579;-68
2021/12/07 02:30:45;;;;;;;0.40;0.40;;;-0.20;99.90;;;;;;5056211;28;20428;-67
2021/12/07 02:33:40;;;;;;;0.40;0.40;;;-0.20;99.90;;;;;;5054868;28;20491;-68
2021/12/07 02:36:27;;;;;;;0.40;0.40;;;-0.20;99.90;;;;;;5060988;28;20585;-68
2021/12/07 02:39:15;;;;;;;0.40;0.40;;;-0.20;99.90;;;;;;5073970;28;20423;-67
2021/12/07 02:42:04;;;;;;;1.57;1.57;;;-0.40;99.90;;;;;;5075341;28;20420;-68
2021/12/07 02:44:51;;;;;;;0.40;0.40;;;-0.30;99.90;;;;;;5041421;28;20437;-68
2021/12/07 02:47:38;;;;;;;0.40;0.40;;;-0.40;99.90;;;;;;5043291;28;20472;-67
2021/12/07 02:50:25;;;;;;;0.63;0.63;;;-0.40;99.90;;;;;;5037329;28;20847;-67
2021/12/07 02:53:12;;;;;;;0.50;0.50;;;-0.50;99.90;;;;;;5036076;28;20422;-69
2021/12/07 02:56:04;;;;;;;0.40;0.40;;;-0.50;99.90;;;;;;5036138;28;20535;-68
2021/12/07 02:58:56;;;;;;;0.40;0.40;;;-0.50;99.90;;;;;;5036276;28;20480;-67
2021/12/07 03:01:47;;;;;;;0.40;0.40;;;-0.60;99.90;;;;;;5035944;28;20417;-67
2021/12/07 03:04:38;;;;;;;0.40;0.40;;;-0.40;99.90;;;;;;5035954;28;20992;-67
2021/12/07 03:07:41;;;;;;;0.40;0.40;;;-0.50;99.90;;;;;;5036003;28;20441;-67
2021/12/07 03:26:06;;;;;;;0.40;0.40;;;-0.60;99.90;;;;;;5034326;28;20421;-67
2021/12/07 03:28:57;;;;;;;0.40;0.40;;;-0.60;99.90;;;;;;5034830;28;20437;-67
2021/12/07 03:31:45;;;;;;;0.40;0.40;;;-0.60;99.90;;;;;;5035001;28;20426;-69
2021/12/07 03:34:32;;;;;;;0.40;0.40;;;-0.60;99.90;;;;;;5034797;28;20516;-67
2021/12/07 03:37:19;;;;;;;0.80;0.80;;;-0.60;99.90;;;;;;5034881;28;20871;-68
2021/12/07 03:40:08;;;;;;;0.40;0.40;;;-0.60;99.90;;;;;;5033664;28;20425;-67
2021/12/07 03:42:55;;;;;;;0.50;0.50;;;-0.60;99.90;;;;;;5041750;28;20945;-67
2021/12/07 03:45:44;;;;;;;0.40;0.40;;;-0.60;99.90;;;;;;5054806;28;20453;-68
2021/12/07 03:48:31;;;;;;;0.40;0.40;;;-0.70;99.90;;;;;;5053780;28;20455;-67
2021/12/07 03:51:18;;;;;;;0.40;0.40;;;-0.60;99.90;;;;;;5054704;28;20483;-68
2021/12/07 03:54:06;;;;;;;0.40;0.40;;;-0.70;99.90;;;;;;5054442;28;20464;-70
2021/12/07 03:56:53;;;;;;;0.40;0.40;;;-0.60;99.90;;;;;;5053449;28;20456;-67
2021/12/07 03:59:40;;;;;;;0.40;0.40;;;-0.80;99.90;;;;;;5054396;28;20491;-68
2021/12/07 04:02:29;;;;;;;1.00;1.00;;;-0.70;99.90;;;;;;5053809;28;20854;-67
2021/12/07 04:05:18;;;;;;;0.40;0.40;;;-0.80;99.90;;;;;;5054127;28;20510;-68
2021/12/07 04:08:05;;;;;;;0.40;0.40;;;-0.70;99.90;;;;;;5053664;28;20495;-68
2021/12/07 04:10:54;;;;;;;0.40;0.40;;;-0.80;99.90;;;;;;5053861;28;20452;-68
2021/12/07 04:13:44;;;;;;;0.40;0.40;;;-0.80;99.90;;;;;;5053420;28;20516;-68
2021/12/07 04:16:31;;;;;;;0.40;0.40;;;-0.80;99.90;;;;;;5053989;28;20473;-68
2021/12/07 04:19:19;;;;;;;0.60;0.60;;;-0.70;99.90;;;;;;5053168;28;20453;-68
2021/12/07 04:22:06;;;;;;;0.40;0.40;;;-0.60;99.90;;;;;;5054167;28;20425;-67
2021/12/07 04:24:53;;;;;;;0.40;0.40;;;-0.40;99.90;;;;;;5053673;28;20424;-68
2021/12/07 04:27:41;;;;;;;0.40;0.40;;;-0.20;99.90;;;;;;5054188;28;20816;-67
2021/12/07 04:30:31;;;;;;;0.40;0.40;;;-0.10;99.90;;;;;;5053958;28;20432;-68
2021/12/07 04:33:18;;;;;;;0.40;0.40;;;0.10;99.90;;;;;;5053787;28;20427;-68
2021/12/07 04:36:07;;;;;;;0.87;0.87;;;0.20;99.90;;;;;;5053363;28;20563;-68
2021/12/07 04:38:54;;;;;;;0.40;0.40;;;0.20;99.90;;;;;;5053259;28;20436;-68
2021/12/07 04:41:44;;;;;;;0.40;0.40;;;0.20;99.90;;;;;;5054073;28;20491;-67
2021/12/07 04:44:31;;;;;;;5.43;5.03;;;0.30;99.90;;;;;;5042623;28;20523;-68
2021/12/07 04:47:24;;;;;;;0.40;0.40;;;0.30;99.90;;;;;;5053818;28;20457;-67
2021/12/07 04:50:31;;;;;;;0.40;0.40;;;0.40;99.90;;;;;;5054218;28;20428;-69
2021/12/07 04:59:30;;;;;;;0.40;0.40;;;0.40;99.90;;;;;;5053928;28;20416;-67
2021/12/07 05:02:18;;;;;;;0.50;0.50;;;0.50;99.90;;;;;;5053741;28;20424;-67
2021/12/07 05:05:08;;;;;;;1.60;1.50;;;0.60;99.90;;;;;;5054472;28;20424;-67
2021/12/07 05:07:57;;;;;;;0.60;0.60;;;0.50;99.90;;;;;;5054107;28;20459;-69
2021/12/07 05:11:23;;;;;;;0.40;0.40;;;0.60;99.90;;;;;;5053498;28;20512;-68
2021/12/07 05:14:17;;;;;;;0.80;0.50;;;0.60;99.90;;;;;;5053239;28;20417;-67
2021/12/07 05:17:18;;;;;;;0.40;0.40;;;0.60;99.90;;;;;;5053453;28;20927;-67
2021/12/07 05:38:43;;;;;;;2.50;2.03;;;0.40;99.90;;;;;;5052894;28;20432;-67
2021/12/07 05:41:31;;;;;;;0.50;0.50;;;0.20;99.90;;;;;;5052587;28;20445;-67
2021/12/07 05:44:18;;;;;;;0.40;0.40;;;0.30;99.90;;;;;;5062381;28;20424;-71
2021/12/07 05:47:05;;;;;;;1.03;1.03;;;0.10;99.90;;;;;;5058285;28;20452;-70
2021/12/07 05:49:52;;;;;;;0.40;0.40;;;0.10;99.90;;;;;;5052869;28;20482;-69
2021/12/07 05:52:39;;;;;;;0.57;0.57;;;0.00;99.90;;;;;;5053387;28;20858;-68
2021/12/07 05:55:27;;;;;;;0.40;0.40;;;-0.10;99.90;;;;;;5052947;28;20472;-67
2021/12/07 05:58:16;;;;;;;0.40;0.40;;;-0.20;99.90;;;;;;5052413;28;20550;-68
2021/12/07 06:01:04;;;;;;;0.40;0.40;;;-0.20;99.90;;;;;;5053007;28;20828;-68
2021/12/07 06:03:52;;;;;;;0.40;0.40;;;-0.30;99.90;;;;;;5052074;28;20959;-68
2021/12/07 06:06:39;;;;;;;0.87;0.87;;;-0.30;99.90;;;;;;5052741;28;20478;-68
2021/12/07 06:09:27;;;;;;;0.40;0.40;;;-0.40;99.90;;;;;;5053289;28;20420;-68
2021/12/07 06:12:14;;;;;;;0.40;0.40;;;-0.40;99.90;;;;;;5052619;28;20433;-68
2021/12/07 06:15:03;;;;;;;0.40;0.40;;;-0.40;99.90;;;;;;5052641;28;20778;-68
2021/12/07 06:17:51;;;;;;;0.80;0.80;;;-0.40;99.90;;;;;;5053164;28;20479;-69
2021/12/07 06:20:40;;;;;;;0.40;0.40;;;-0.30;99.90;;;;;;5052783;28;20861;-67
2021/12/07 06:23:27;;;;;;;0.40;0.40;;;-0.40;99.90;;;;;;5052788;28;20508;-67
2021/12/07 06:26:14;;;;;;;0.40;0.40;;;-0.40;99.90;;;;;;5052631;28;20444;-68
2021/12/07 06:29:01;;;;;;;0.40;0.40;;;-0.40;99.90;;;;;;5052426;28;20456;-68
2021/12/07 06:31:49;;;;;;;0.40;0.40;;;-0.40;99.90;;;;;;5052705;28;20425;-67
2021/12/07 06:34:37;;;;;;;0.40;0.40;;;-0.40;99.90;;;;;;5052294;28;20999;-68
2021/12/07 06:37:24;;;;;;;0.40;0.40;;;-0.40;99.90;;;;;;5051880;28;20871;-68
2021/12/07 06:40:12;;;;;;;0.40;0.40;;;-0.30;99.90;;;;;;5052570;28;20452;-68
2021/12/07 06:43:00;;;;;;;0.40;0.40;;;-0.30;99.90;;;;;;5053149;28;20483;-68
2021/12/07 06:45:47;;;;;;;0.40;0.40;;;-0.20;99.90;;;;;;5045505;28;20725;-69
2021/12/07 06:48:35;;;;;;;0.50;0.50;;;-0.20;99.90;;;;;;5052217;28;20937;-69
2021/12/07 06:51:23;;;;;;;0.40;0.40;;;0.00;99.90;;;;;;5033433;28;20422;-68
2021/12/07 06:54:10;;;;;;;0.40;0.40;;;0.20;99.90;;;;;;5038425;28;20432;-68
2021/12/07 06:57:00;;;;;;;0.40;0.40;;;0.00;99.90;;;;;;5051144;28;20506;-69
2021/12/07 06:59:47;;;;;;;0.70;0.70;;;0.00;99.90;;;;;;5050717;28;20506;-70
2021/12/07 07:02:34;;;;;;;0.40;0.40;;;-0.10;99.90;;;;;;5051869;28;20421;-68
2021/12/07 07:05:23;;;;;;;0.40;0.40;;;-0.10;99.90;;;;;;5051288;28;20432;-68
2021/12/07 07:08:09;;;;;;;0.40;0.40;;;0.00;99.90;;;;;;5052484;28;20445;-68
2021/12/07 07:10:57;;;;;;;0.40;0.40;;;0.10;99.90;;;;;;5053118;28;20425;-68
2021/12/07 07:13:44;;;;;;;0.40;0.40;;;0.20;99.90;;;;;;5052047;28;20453;-68
2021/12/07 07:16:31;;;;;;;0.40;0.40;;;0.40;99.90;;;;;;5055729;28;20424;-68
2021/12/07 07:19:17;;;;;;;0.40;0.40;;;0.40;99.90;;;;;;5055196;28;20925;-68
2021/12/07 07:22:06;;;;;;;1.77;1.63;;;0.40;99.90;;;;;;5055081;28;20511;-69
2021/12/07 07:24:53;;;;;;;0.40;0.40;;;0.50;99.90;;;;;;5055353;28;20510;-68
2021/12/07 07:27:40;;;;;;;0.40;0.40;;;0.50;99.90;;;;;;5055681;28;20464;-68
2021/12/07 07:30:28;;;;;;;0.60;0.60;;;0.50;99.90;;;;;;5055635;28;20431;-68
2021/12/07 07:33:15;;;;;;;0.40;0.40;;;0.60;99.90;;;;;;5051372;28;20515;-68
2021/12/07 07:36:02;;;;;;;0.40;0.40;;;0.60;99.90;;;;;;5039085;28;20934;-70
2021/12/07 07:38:50;;;;;;;1.27;0.80;;;0.60;99.90;;;;;;5047994;28;20440;-69
2021/12/07 07:41:37;;;;;;;0.40;0.40;;;0.50;99.90;;;;;;5053497;28;21041;-68
2021/12/07 07:44:24;;;;;;;0.40;0.40;;;0.50;99.90;;;;;;5053682;28;20433;-68
2021/12/07 07:47:11;;;;;;;2.07;1.73;;;0.60;99.90;;;;;;5053881;28;20914;-67
2021/12/07 07:49:58;;;;;;;0.50;0.50;;;0.70;99.90;;;;;;5053186;28;20436;-69
2021/12/07 07:52:45;;;;;;;0.40;0.40;;;0.60;99.90;;;;;;5054082;28;20519;-68
2021/12/07 07:55:35;;;;;;;0.80;0.80;;;0.80;99.90;;;;;;5054407;28;20510;-68
2021/12/07 07:58:22;;;;;;;0.53;0.53;;;0.70;99.90;;;;;;5054266;28;20484;-69
2021/12/07 08:01:09;;;;;;;0.40;0.40;;;0.90;99.90;;;;;;5054223;28;20456;-68
2021/12/07 08:03:57;;;;;;;3.50;3.30;;;0.90;99.90;;;;;;5054517;28;20433;-68
2021/12/07 08:06:43;;;;;;;4.87;4.47;;;0.90;99.90;;;;;;5054290;28;20559;-67
2021/12/07 08:09:30;;;;;;;0.40;0.40;;;0.90;99.90;;;;;;5059009;28;20485;-68
2021/12/07 08:12:19;;;;;;;0.40;0.40;;;0.70;99.90;;;;;;5067131;28;20485;-69
2021/12/07 08:15:07;;;;;;;0.40;0.40;;;0.80;99.90;;;;;;5042554;28;20425;-68
2021/12/07 08:17:54;;;;;;;0.40;0.40;;;0.80;99.90;;;;;;5034542;28;21052;-68
2021/12/07 08:20:43;;;;;;;0.40;0.40;;;0.90;99.90;;;;;;5049595;28;20425;-68
2021/12/07 08:23:30;;;;;;;0.40;0.40;;;0.90;99.90;;;;;;5061072;28;20424;-68
2021/12/07 08:26:22;;;;;;;2.60;2.50;;;0.90;99.90;;;;;;5042729;28;20818;-71
2021/12/07 08:29:11;;;;;;;0.40;0.40;;;0.80;99.90;;;;;;5059529;28;20507;-68
2021/12/07 08:31:58;;;;;;;0.40;0.40;;;0.80;99.90;;;;;;5046540;28;20426;-69
2021/12/07 08:34:44;;;;;;;10.37;9.27;;;0.80;99.90;;;;;;5057413;28;20475;-71
2021/12/07 08:37:31;;;;;;;1.00;1.00;;;0.70;99.90;;;;;;5050323;28;20567;-69
2021/12/07 08:40:21;;;;;;;1.57;1.47;;;0.70;99.90;;;;;;5052639;28;20460;-68
2021/12/07 08:43:12;;;;;;;0.50;0.50;;;0.80;99.90;;;;;;5032397;28;20542;-68
2021/12/07 08:46:02;;;;;;;0.40;0.40;;;0.80;99.90;;;;;;5039538;28;20937;-69
2021/12/07 08:48:50;;;;;;;1.43;1.33;;;1.00;99.90;;;;;;5048508;28;20456;-68
2021/12/07 08:51:39;;;;;;;0.40;0.40;;;1.30;99.90;;;;;;5034305;28;20420;-68
2021/12/07 08:54:35;;;;;;;0.40;0.40;;;1.40;99.90;;;;;;5043058;28;20918;-67
2021/12/07 09:00:28;;;;;;;0.40;0.40;;;1.70;99.90;;;;;;5051815;28;20424;-68
2021/12/07 09:03:16;;;;;;;0.40;0.40;;;1.80;99.90;;;;;;5051581;28;20900;-68
2021/12/07 09:06:04;;;;;;;0.40;0.40;;;1.90;99.90;;;;;;5054099;28;20428;-68
2021/12/07 09:08:52;;;;;;;0.50;0.50;;;1.90;99.90;;;;;;5053819;28;20511;-68
2021/12/07 09:11:39;;;;;;;0.50;0.50;;;1.90;99.90;;;;;;5054087;28;20453;-68
2021/12/07 09:14:29;;;;;;;0.40;0.40;;;1.90;99.90;;;;;;5053815;28;20422;-68
2021/12/07 09:17:16;;;;;;;0.70;0.70;;;1.90;99.90;;;;;;5051486;28;20475;-68
2021/12/07 09:20:09;;;;;;;2.63;2.53;;;1.90;99.90;;;;;;5048180;28;20448;-68
2021/12/07 09:22:56;;;;;;;0.40;0.40;;;1.80;99.90;;;;;;5041968;28;20431;-68
2021/12/07 09:25:44;;;;;;;0.40;0.40;;;1.80;99.90;;;;;;5039862;28;20429;-68
2021/12/07 09:28:31;;;;;;;0.40;0.40;;;1.80;99.90;;;;;;5032081;28;20813;-68
2021/12/07 09:31:19;;;;;;;21.30;19.73;;;1.80;99.90;;;;;;5030778;28;20868;-68
2021/12/07 09:34:06;;;;;;;0.80;0.80;;;1.90;99.90;;;;;;5031370;28;20436;-68
2021/12/07 09:36:55;;;;;;;0.40;0.40;;;1.90;99.90;;;;;;5031216;28;20429;-68
2021/12/07 09:39:41;;;;;;;0.40;0.40;;;2.10;99.90;;;;;;5031097;28;20475;-68
2021/12/07 09:42:29;;;;;;;0.50;0.50;;;2.20;99.90;;;;;;5031435;28;20432;-68
2021/12/07 09:45:18;;;;;;;0.40;0.40;;;2.00;99.90;;;;;;5033089;28;20473;-68
2021/12/07 09:48:07;;;;;;;7.20;6.80;;;2.00;99.90;;;;;;5033723;28;20824;-68
2021/12/07 09:50:57;;;;;;;0.40;0.40;;;2.00;99.90;;;;;;5032246;28;20417;-68
2021/12/07 09:53:46;;;;;;;0.40;0.40;;;2.00;99.90;;;;;;5018202;28;20433;-68
2021/12/07 09:56:33;;;;;;;0.83;0.83;;;2.10;99.90;;;;;;5032967;28;20437;-68
2021/12/07 09:59:21;;;;;;;0.40;0.40;;;2.00;99.90;;;;;;5035366;28;20539;-68
2021/12/07 10:02:08;;;;;;;0.40;0.40;;;2.10;99.90;;;;;;5035170;28;20911;-69
2021/12/07 10:04:54;;;;;;;0.40;0.40;;;2.20;99.90;;;;;;5036371;28;20433;-68
2021/12/07 10:07:41;;;;;;;0.40;0.40;;;2.10;99.90;;;;;;5035731;28;20452;-68
2021/12/07 10:10:32;;;;;;;0.40;0.40;;;2.30;99.90;;;;;;5036356;28;20452;-68
2021/12/07 10:13:21;;;;;;;1.27;0.93;;;2.30;99.90;;;;;;5036716;28;20421;-68
2021/12/07 10:16:09;;;;;;;0.40;0.40;;;2.40;99.90;;;;;;5034928;28;20523;-68
2021/12/07 10:18:56;;;;;;;0.40;0.40;;;2.40;99.90;;;;;;5035424;28;20477;-69
2021/12/07 10:21:44;;;;;;;0.40;0.40;;;2.50;99.90;;;;;;5035409;28;20514;-68
2021/12/07 10:24:37;;;;;;;0.40;0.40;;;2.60;99.90;;;;;;5035399;28;20425;-68
2021/12/07 10:27:37;;;;;;;1.23;0.80;;;2.60;99.90;;;;;;5035778;28;20457;-68
2021/12/07 10:30:25;;;;;;;0.40;0.40;;;2.80;99.90;;;;;;5036390;28;20430;-71
2021/12/07 10:33:12;;;;;;;3.27;2.97;;;2.70;99.90;;;;;;5035494;28;20433;-68
2021/12/07 10:36:15;;;;;;;0.40;0.40;;;2.60;99.90;;;;;;5037878;28;20508;-68
2021/12/07 10:39:09;;;;;;;1.00;1.00;;;2.60;99.90;;;;;;5035133;28;20501;-68
2021/12/07 10:41:59;;;;;;;0.40;0.40;;;2.60;99.90;;;;;;5034983;28;20421;-68
2021/12/07 10:44:47;;;;;;;2.60;2.50;;;2.60;99.90;;;;;;5038956;28;20414;-68
2021/12/07 10:47:34;;;;;;;1.20;1.20;;;2.60;99.90;;;;;;5035285;28;20453;-69
2021/12/07 10:50:21;;;;;;;1.47;1.37;;;2.70;99.90;;;;;;5039169;28;20457;-68
2021/12/07 10:53:16;;;;;;;1.20;1.10;;;2.70;99.90;;;;;;5047062;28;20421;-67
2021/12/07 10:56:03;;;;;;;0.40;0.40;;;2.80;99.90;;;;;;5063118;28;20460;-68
2021/12/07 10:58:59;;;;;;;0.40;0.40;;;2.70;99.90;;;;;;5052802;28;20898;-68
2021/12/07 11:01:50;;;;;;;1.13;1.00;;;2.70;99.90;;;;;;5058223;28;20425;-69
2021/12/07 11:04:37;;;;;;;0.40;0.40;;;2.70;99.90;;;;;;5063716;28;20472;-68
2021/12/07 11:07:26;;;;;;;0.40;0.40;;;2.60;99.90;;;;;;5058370;28;20487;-68
2021/12/07 11:10:17;;;;;;;0.40;0.40;;;2.70;99.90;;;;;;5057353;28;20463;-68
2021/12/07 11:13:12;;;;;;;1.43;1.33;;;2.70;99.90;;;;;;5057195;28;20424;-68
2021/12/07 11:16:03;;;;;;;0.57;0.57;;;2.60;99.90;;;;;;5061820;28;20430;-68
2021/12/07 11:18:54;;;;;;;0.60;0.60;;;2.60;99.90;;;;;;5050307;28;20479;-68
2021/12/07 11:21:44;;;;;;;0.40;0.40;;;2.50;99.90;;;;;;5036481;28;20516;-67
2021/12/07 11:24:39;;;;;;;0.40;0.40;;;2.50;99.90;;;;;;5035738;28;20508;-68
2021/12/07 11:30:30;;;;;;;0.40;0.40;;;2.60;99.90;;;;;;5037277;28;20422;-68
2021/12/07 11:33:24;;;;;;;1.70;1.60;;;2.60;99.90;;;;;;5036990;28;20433;-67
2021/12/07 11:36:25;;;;;;;1.80;1.67;;;2.60;99.90;;;;;;5036674;28;20509;-68
2021/12/07 11:39:26;;;;;;;1.07;1.07;;;2.80;99.90;;;;;;5036219;28;20539;-68
2021/12/07 11:42:16;;;;;;;0.40;0.40;;;2.90;99.90;;;;;;5037790;28;20420;-68
2021/12/07 11:45:07;;;;;;;2.10;2.00;;;3.00;99.90;;;;;;5057359;28;20424;-68
2021/12/07 11:47:58;;;;;;;0.40;0.40;;;3.10;99.90;;;;;;5054171;28;20445;-68
2021/12/07 11:50:48;;;;;;;0.40;0.40;;;3.00;99.90;;;;;;5055268;28;20471;-68
2021/12/07 11:53:36;;;;;;;0.40;0.40;;;3.10;99.90;;;;;;5054745;28;21006;-68
2021/12/07 11:56:23;;;;;;;0.40;0.40;;;3.30;99.90;;;;;;5054671;28;20455;-69
2021/12/07 11:59:12;;;;;;;0.80;0.80;;;3.60;99.90;;;;;;5054472;28;20503;-68
2021/12/07 12:01:59;;;;;;;0.40;0.40;;;3.80;99.90;;;;;;5054915;28;20440;-69
2021/12/07 12:04:46;;;;;;;6.33;3.60;;;4.10;99.90;;;;;;5054121;28;20443;-69
2021/12/07 12:07:34;;;;;;;0.40;0.40;;;4.20;99.90;;;;;;5054426;28;20467;-68
2021/12/07 12:10:22;;;;;;;0.40;0.40;;;4.20;99.90;;;;;;5054088;28;20439;-68
2021/12/07 12:13:17;;;;;;;1.90;1.80;;;3.90;99.90;;;;;;5054557;28;20429;-68
2021/12/07 12:16:16;;;;;;;2.50;0.60;;;3.80;99.90;;;;;;5054233;28;20436;-68
2021/12/07 12:19:19;;;;;;;0.50;0.50;;;3.70;99.90;;;;;;5055299;28;20475;-69
2021/12/07 12:22:15;;;;;;;0.40;0.40;;;3.60;99.90;;;;;;5054956;28;20424;-68
2021/12/07 12:25:08;;;;;;;2.20;2.10;;;3.50;99.90;;;;;;5055105;28;20417;-68
2021/12/07 12:27:58;;;;;;;1.37;1.37;;;3.70;99.90;;;;;;5055561;28;20440;-68
2021/12/07 12:30:45;;;;;;;0.50;0.50;;;3.90;99.90;;;;;;5035227;28;20840;-68
2021/12/07 12:33:47;;;;;;;0.40;0.40;;;4.00;99.90;;;;;;5035526;28;20516;-68
2021/12/07 12:36:38;;;;;;;0.40;0.40;;;3.90;99.90;;;;;;5035343;28;20433;-68
2021/12/07 12:39:50;;;;;;;0.70;0.70;;;4.00;99.90;;;;;;5035798;28;20519;-68
2021/12/07 12:42:39;;;;;;;0.40;0.40;;;4.10;99.90;;;;;;5040396;28;20803;-67
2021/12/07 12:45:31;;;;;;;0.40;0.40;;;4.10;99.90;;;;;;5055136;28;20435;-68
2021/12/07 12:48:20;;;;;;;1.53;1.10;;;4.10;99.90;;;;;;5055207;28;20441;-68
2021/12/07 12:51:08;;;;;;;0.40;0.40;;;4.00;99.90;;;;;;5055402;28;20428;-68
2021/12/07 12:53:57;;;;;;;5.30;4.90;;;3.90;99.90;;;;;;5055044;28;20431;-68
2021/12/07 12:56:43;;;;;;;0.87;0.87;;;3.90;99.90;;;;;;5054143;28;20435;-68
2021/12/07 12:59:38;;;;;;;9.40;5.67;;;3.80;99.90;;;;;;5062998;22;20575;-68
2021/12/07 13:02:29;;;;;;;0.40;0.40;;;3.50;99.90;;;;;;5036663;28;20416;-69
2021/12/07 13:05:17;;;;;;;0.43;0.43;;;3.40;99.90;;;;;;5038519;28;20417;-69
2021/12/07 13:08:13;;;;;;;1.30;1.30;;;3.30;99.90;;;;;;5037708;28;20453;-69
2021/12/07 13:11:04;;;;;;;0.50;0.50;;;3.20;99.90;;;;;;5037733;28;20571;-69
2021/12/07 13:13:52;;;;;;;0.50;0.50;;;3.00;99.90;;;;;;5037538;28;20888;-68
2021/12/07 13:16:47;;;;;;;0.50;0.50;;;2.90;99.90;;;;;;5035068;28;20421;-68
2021/12/07 13:20:07;;;;;;;0.40;0.40;;;2.80;99.90;;;;;;5034386;28;20516;-69
2021/12/07 13:23:01;;;;;;;0.50;0.50;;;2.80;99.90;;;;;;5034293;28;20499;-68
2021/12/07 13:25:50;;;;;;;0.40;0.40;;;2.90;99.90;;;;;;5032265;28;20760;-69
2021/12/07 13:28:37;;;;;;;0.97;0.97;;;2.90;99.90;;;;;;5027779;28;20454;-69
2021/12/07 13:31:24;;;;;;;0.40;0.40;;;2.80;99.90;;;;;;5035401;28;20433;-68
2021/12/07 13:34:14;;;;;;;0.40;0.40;;;2.80;99.90;;;;;;5039155;28;20471;-69
2021/12/07 13:37:04;;;;;;;0.40;0.40;;;2.90;99.90;;;;;;5053653;28;20953;-69
2021/12/07 13:39:56;;;;;;;1.63;1.53;;;2.90;99.90;;;;;;5056575;28;20464;-69
2021/12/07 13:42:48;;;;;;;0.40;0.40;;;2.90;99.90;;;;;;5054040;28;20990;-70
2021/12/07 13:45:35;;;;;;;0.40;0.40;;;2.90;99.90;;;;;;5053444;28;20451;-70
2021/12/07 13:48:22;;;;;;;0.40;0.40;;;2.90;99.90;;;;;;5015005;28;20441;-69
2021/12/07 13:51:10;;;;;;;0.47;0.47;;;2.80;99.90;;;;;;5014251;28;20429;-70
2021/12/07 13:54:00;;;;;;;0.90;0.90;;;2.80;99.90;;;;;;5035504;28;20626;-70
2021/12/07 13:56:49;;;;;;;0.70;0.70;;;2.80;99.90;;;;;;5038318;28;20457;-69
2021/12/07 13:59:36;;;;;;;0.40;0.40;;;2.70;99.90;;;;;;5032149;28;20889;-69
2021/12/07 14:02:23;;;;;;;0.40;0.40;;;2.60;99.90;;;;;;5032860;28;20479;-69
2021/12/07 14:05:14;;;;;;;1.03;1.03;;;2.50;99.90;;;;;;5034317;28;20417;-70
2021/12/07 14:08:05;;;;;;;0.50;0.50;;;2.50;99.90;;;;;;5032827;28;20445;-69
2021/12/07 14:10:55;;;;;;;0.40;0.40;;;2.40;99.90;;;;;;5032782;28;20429;-69
2021/12/07 14:13:45;;;;;;;0.40;0.40;;;2.50;99.90;;;;;;5034605;28;20782;-70
2021/12/07 14:16:32;;;;;;;0.40;0.40;;;2.50;99.90;;;;;;5034442;28;20421;-69
2021/12/07 14:19:19;;;;;;;0.50;0.50;;;2.50;99.90;;;;;;5034862;28;20988;-69
2021/12/07 14:22:06;;;;;;;0.40;0.40;;;2.40;99.90;;;;;;5035597;28;20447;-70
2021/12/07 14:24:53;;;;;;;0.77;0.67;;;2.40;99.90;;;;;;5019244;28;20446;-70
2021/12/07 14:27:45;;;;;;;0.40;0.40;;;2.30;99.90;;;;;;5026229;28;20422;-70
2021/12/07 14:30:32;;;;;;;0.50;0.50;;;2.20;99.90;;;;;;5031233;28;20429;-71
2021/12/07 14:33:19;;;;;;;1.03;0.90;;;2.10;99.90;;;;;;5029430;28;20437;-70
2021/12/07 14:36:07;;;;;;;0.50;0.50;;;2.20;99.90;;;;;;5029207;28;20445;-70
2021/12/07 14:39:00;;;;;;;0.50;0.50;;;2.10;99.90;;;;;;5024661;28;20537;-70
2021/12/07 14:41:52;;;;;;;0.40;0.40;;;2.10;99.90;;;;;;5025108;28;20509;-70
2021/12/07 14:44:42;;;;;;;0.40;0.40;;;2.10;99.90;;;;;;5026597;28;20425;-70
2021/12/07 14:47:29;;;;;;;0.40;0.40;;;2.10;99.90;;;;;;5024271;28;20446;-70
2021/12/07 14:50:16;;;;;;;0.40;0.40;;;2.10;99.90;;;;;;5028003;28;21220;-70
2021/12/07 14:53:05;;;;;;;0.40;0.40;;;2.20;99.90;;;;;;5030745;28;20446;-71
2021/12/07 14:55:55;;;;;;;0.40;0.40;;;2.10;99.90;;;;;;5029420;28;20426;-70
2021/12/07 14:58:45;;;;;;;0.50;0.50;;;2.20;99.90;;;;;;5029747;28;20457;-70
2021/12/07 15:01:39;;;;;;;0.40;0.40;;;2.20;99.90;;;;;;5035375;28;20441;-70
2021/12/07 15:04:29;;;;;;;0.50;0.50;;;2.30;99.90;;;;;;5033313;28;20436;-70
2021/12/07 15:07:18;;;;;;;0.40;0.40;;;2.30;99.90;;;;;;5025280;28;20918;-70
2021/12/07 15:10:09;;;;;;;0.80;0.80;;;2.20;99.90;;;;;;5028537;28;20922;-70
2021/12/07 15:12:56;;;;;;;0.50;0.50;;;2.20;99.90;;;;;;5027038;28;20516;-69
2021/12/07 15:15:43;;;;;;;0.40;0.40;;;2.20;99.90;;;;;;5022632;28;20505;-72
2021/12/07 15:18:33;;;;;;;0.50;0.50;;;2.20;99.90;;;;;;5017035;28;20953;-71
2021/12/07 15:21:22;;;;;;;0.50;0.50;;;2.20;99.90;;;;;;5017291;28;20422;-69
2021/12/07 15:24:11;;;;;;;0.50;0.50;;;2.30;99.90;;;;;;5047449;28;21007;-70
2021/12/07 15:26:58;;;;;;;0.50;0.50;;;2.20;99.90;;;;;;5057172;28;20467;-71
2021/12/07 15:29:45;;;;;;;0.40;0.40;;;2.10;99.90;;;;;;5077827;28;20490;-71
2021/12/07 15:32:32;;;;;;;0.50;0.50;;;2.10;99.90;;;;;;5076856;28;20408;-71
2021/12/07 15:35:25;;;;;;;2.70;2.60;;;2.10;99.90;;;;;;5076340;28;20444;-71
2021/12/07 15:38:16;;;;;;;0.50;0.50;;;2.20;99.90;;;;;;5077498;28;20467;-70
2021/12/07 15:41:03;;;;;;;0.40;0.40;;;2.20;99.90;;;;;;5078100;28;20754;-73
2021/12/07 15:43:50;;;;;;;0.50;0.50;;;2.20;99.90;;;;;;5077890;28;20419;-71
2021/12/07 15:46:46;;;;;;;0.40;0.40;;;2.10;99.90;;;;;;5077226;28;20456;-70
2021/12/07 15:49:35;;;;;;;0.40;0.40;;;2.10;99.90;;;;;;5077940;28;20440;-69
2021/12/07 15:52:28;;;;;;;0.40;0.40;;;2.10;99.90;;;;;;5077310;28;20448;-70
2021/12/07 15:55:18;;;;;;;0.40;0.40;;;2.20;99.90;;;;;;5075894;28;20436;-70
2021/12/07 15:58:10;;;;;;;0.40;0.40;;;2.20;99.90;;;;;;5077225;28;20464;-69
2021/12/07 16:01:01;;;;;;;0.80;0.80;;;2.10;99.90;;;;;;5074562;28;20467;-70
2021/12/07 16:03:50;;;;;;;0.40;0.40;;;2.10;99.90;;;;;;5075506;28;20421;-74
2021/12/07 16:06:37;;;;;;;0.47;0.47;;;2.10;99.90;;;;;;5070325;28;20433;-71